createdAt,value
2019-02-14T00:02:23.426Z,3.00
2019-02-14T00:04:54.956Z,2.50
2019-02-14T00:07:25.245Z,2.43
2019-02-14T00:09:56.189Z,2.80
2019-02-14T00:12:26.803Z,4.20
2019-02-14T00:14:57.159Z,1.70
2019-02-14T00:17:27.519Z,2.87
2019-02-14T00:19:58.193Z,2.83
2019-02-14T00:22:28.475Z,3.83
2019-02-14T00:24:59.005Z,2.57
2019-02-14T00:27:29.369Z,1.57
2019-02-14T00:29:59.709Z,2.50
2019-02-14T00:32:30.080Z,3.33
2019-02-14T00:35:00.503Z,2.00
2019-02-14T00:37:31.018Z,1.63
2019-02-14T00:40:01.467Z,1.47
2019-02-14T00:42:32.161Z,2.60
2019-02-14T00:45:02.401Z,3.20
2019-02-14T00:47:34.032Z,2.77
2019-02-14T00:50:05.096Z,1.70
2019-02-14T00:52:35.710Z,2.90
2019-02-14T00:55:06.589Z,2.60
2019-02-14T00:57:37.207Z,1.70
2019-02-14T01:00:07.592Z,2.47
2019-02-14T01:02:38.435Z,1.80
2019-02-14T01:05:09.194Z,2.70
2019-02-14T01:07:39.983Z,2.00
2019-02-14T01:10:10.429Z,1.70
2019-02-14T01:12:40.709Z,3.13
2019-02-14T01:15:11.534Z,1.73
2019-02-14T01:17:42.018Z,3.03
2019-02-14T01:20:12.357Z,2.60
2019-02-14T01:22:43.273Z,1.27
2019-02-14T01:25:13.541Z,1.93
2019-02-14T01:27:44.100Z,2.77
2019-02-14T01:30:14.645Z,2.67
2019-02-14T01:32:45.493Z,3.10
2019-02-14T01:35:15.882Z,1.73
2019-02-14T01:37:48.140Z,2.17
2019-02-14T01:40:19.057Z,2.23
2019-02-14T01:42:49.434Z,4.10
2019-02-14T01:45:21.043Z,2.23
2019-02-14T01:47:51.848Z,2.63
2019-02-14T01:50:22.585Z,3.43
2019-02-14T01:52:53.320Z,3.30
2019-02-14T01:55:23.519Z,2.07
2019-02-14T01:57:53.632Z,1.37
2019-02-14T02:00:24.186Z,2.13
2019-02-14T02:02:54.870Z,1.90
2019-02-14T02:05:25.600Z,2.20
2019-02-14T02:07:55.715Z,2.97
2019-02-14T02:10:26.434Z,3.03
2019-02-14T02:12:57.486Z,1.57
2019-02-14T02:15:28.299Z,2.80
2019-02-14T02:17:58.558Z,1.50
2019-02-14T02:20:33.401Z,2.00
2019-02-14T02:23:01.310Z,1.40
2019-02-14T02:25:31.877Z,3.07
2019-02-14T02:28:02.517Z,2.20
2019-02-14T02:30:33.239Z,1.57
2019-02-14T02:33:03.716Z,2.50
2019-02-14T02:35:34.236Z,2.60
2019-02-14T02:38:04.496Z,2.90
2019-02-14T02:40:35.545Z,3.50
2019-02-14T02:43:06.281Z,1.60
2019-02-14T02:45:36.785Z,3.20
2019-02-14T02:48:08.354Z,2.40
2019-02-14T02:50:39.302Z,3.13
2019-02-14T02:53:10.081Z,2.27
2019-02-14T02:55:40.613Z,3.80
2019-02-14T02:58:11.414Z,4.87
2019-02-14T03:00:42.108Z,1.80
2019-02-14T03:03:12.626Z,1.73
2019-02-14T03:05:42.878Z,2.00
2019-02-14T03:08:13.300Z,2.33
2019-02-14T03:10:44.036Z,3.07
2019-02-14T03:13:14.369Z,2.90
2019-02-14T03:15:44.930Z,1.70
2019-02-14T03:18:15.022Z,1.80
2019-02-14T03:20:45.960Z,2.40
2019-02-14T03:23:16.755Z,2.70
2019-02-14T03:25:47.338Z,1.27
2019-02-14T03:28:18.202Z,2.40
2019-02-14T03:30:48.804Z,1.63
2019-02-14T03:33:19.629Z,2.47
2019-02-14T03:35:50.222Z,2.33
2019-02-14T03:38:20.764Z,2.07
2019-02-14T03:40:51.730Z,1.60
2019-02-14T03:43:23.239Z,2.30
2019-02-14T03:45:53.628Z,3.00
2019-02-14T03:48:24.591Z,1.33
2019-02-14T03:50:54.934Z,2.73
2019-02-14T03:53:25.774Z,2.57
2019-02-14T03:55:55.839Z,1.80
2019-02-14T03:58:25.929Z,1.90
2019-02-14T04:00:56.498Z,1.90
2019-02-14T04:03:27.171Z,2.20
2019-02-14T04:05:57.615Z,1.50
2019-02-14T04:08:27.887Z,1.90
2019-02-14T04:10:58.676Z,2.73
2019-02-14T04:13:29.160Z,2.30
2019-02-14T04:15:59.752Z,1.50
2019-02-14T04:18:30.584Z,1.33
2019-02-14T04:21:01.437Z,1.43
2019-02-14T04:23:31.835Z,1.83
2019-02-14T04:26:02.159Z,2.10
2019-02-14T04:28:32.495Z,1.60
2019-02-14T04:31:02.598Z,2.40
2019-02-14T04:33:32.947Z,2.83
2019-02-14T04:36:03.381Z,2.33
2019-02-14T04:38:34.270Z,2.20
2019-02-14T04:41:05.030Z,3.20
2019-02-14T04:43:35.735Z,1.83
2019-02-14T04:46:06.492Z,1.53
2019-02-14T04:48:36.777Z,1.30
2019-02-14T04:51:07.811Z,3.03
2019-02-14T04:53:38.293Z,2.70
2019-02-14T04:56:08.871Z,1.97
2019-02-14T04:58:38.895Z,2.10
2019-02-14T05:01:09.186Z,2.07
2019-02-14T05:03:39.924Z,2.90
2019-02-14T05:06:10.751Z,3.23
2019-02-14T05:08:41.137Z,2.13
2019-02-14T05:11:11.379Z,2.83
2019-02-14T05:13:42.194Z,1.33
2019-02-14T05:16:12.988Z,2.20
2019-02-14T05:18:44.457Z,2.17
2019-02-14T05:21:15.146Z,2.00
2019-02-14T05:23:45.671Z,1.97
2019-02-14T05:26:16.563Z,3.27
2019-02-14T05:28:46.895Z,1.87
2019-02-14T05:31:17.601Z,2.17
2019-02-14T05:33:48.689Z,0.80
2019-02-14T05:36:19.635Z,1.23
2019-02-14T05:38:50.173Z,1.47
2019-02-14T05:41:21.214Z,1.60
2019-02-14T05:43:51.758Z,2.87
2019-02-14T05:46:22.284Z,3.13
2019-02-14T05:48:53.103Z,2.30
2019-02-14T05:51:24.119Z,1.40
2019-02-14T05:53:54.724Z,2.97
2019-02-14T05:56:25.589Z,2.73
2019-02-14T05:58:56.128Z,2.50
2019-02-14T06:01:27.223Z,1.57
2019-02-14T06:03:57.894Z,2.43
2019-02-14T06:06:27.977Z,3.33
2019-02-14T06:08:58.798Z,1.60
2019-02-14T06:11:28.923Z,1.60
2019-02-14T06:13:59.732Z,1.83
2019-02-14T06:16:30.578Z,1.43
2019-02-14T06:19:01.190Z,2.77
2019-02-14T06:21:31.820Z,3.37
2019-02-14T06:24:02.704Z,2.83
2019-02-14T06:26:33.328Z,2.73
2019-02-14T06:29:03.906Z,1.57
2019-02-14T06:31:34.944Z,3.37
2019-02-14T06:34:05.294Z,3.57
2019-02-14T06:36:35.690Z,3.63
2019-02-14T06:39:07.374Z,1.43
2019-02-14T06:41:38.034Z,4.50
2019-02-14T06:44:08.723Z,1.53
2019-02-14T06:46:39.562Z,2.10
2019-02-14T06:49:10.378Z,1.83
2019-02-14T06:51:40.655Z,1.50
2019-02-14T06:54:11.444Z,1.87
2019-02-14T06:56:42.036Z,2.17
2019-02-14T06:59:12.626Z,2.20
2019-02-14T07:01:43.584Z,1.77
2019-02-14T07:04:13.776Z,4.47
2019-02-14T07:06:44.320Z,1.90
2019-02-14T07:09:14.860Z,1.60
2019-02-14T07:11:45.834Z,2.10
2019-02-14T07:14:16.374Z,2.13
2019-02-14T07:16:46.891Z,1.90
2019-02-14T07:19:17.510Z,3.27
2019-02-14T07:21:48.184Z,3.20
2019-02-14T07:24:18.623Z,3.13
2019-02-14T07:26:49.050Z,2.83
2019-02-14T07:29:19.034Z,2.13
2019-02-14T07:31:49.340Z,1.47
2019-02-14T07:34:20.094Z,2.23
2019-02-14T07:36:50.402Z,2.83
2019-02-14T07:39:20.660Z,2.40
2019-02-14T07:41:51.620Z,4.73
2019-02-14T07:44:23.002Z,3.73
2019-02-14T07:46:53.670Z,2.57
2019-02-14T07:49:24.366Z,3.23
2019-02-14T07:51:54.905Z,4.47
2019-02-14T07:54:25.732Z,4.77
2019-02-14T07:56:56.244Z,4.10
2019-02-14T07:59:26.955Z,2.20
2019-02-14T08:01:57.601Z,4.40
2019-02-14T08:04:28.692Z,3.70
2019-02-14T08:07:00.284Z,4.00
2019-02-14T08:09:30.687Z,3.30
2019-02-14T08:12:01.353Z,3.33
2019-02-14T08:14:32.197Z,2.87
2019-02-14T08:17:03.397Z,2.13
2019-02-14T08:19:34.211Z,5.40
2019-02-14T08:22:04.488Z,3.67
2019-02-14T08:24:35.310Z,2.20
2019-02-14T08:27:05.966Z,3.40
2019-02-14T08:29:36.596Z,4.50
2019-02-14T08:32:07.379Z,8.13
2019-02-14T08:34:37.379Z,5.20
2019-02-14T08:37:07.959Z,4.47
2019-02-14T08:39:38.881Z,6.07
2019-02-14T08:42:09.613Z,4.63
2019-02-14T08:44:40.585Z,6.80
2019-02-14T08:47:10.971Z,5.67
2019-02-14T08:49:41.702Z,5.57
2019-02-14T08:52:12.041Z,5.23
2019-02-14T08:54:43.027Z,5.50
2019-02-14T08:57:13.557Z,5.03
2019-02-14T08:59:44.028Z,6.57
2019-02-14T09:02:13.851Z,5.23
2019-02-14T09:04:44.349Z,5.20
2019-02-14T09:07:15.318Z,6.70
2019-02-14T09:09:46.444Z,6.30
2019-02-14T09:12:16.491Z,5.33
2019-02-14T09:14:47.097Z,6.13
2019-02-14T09:17:18.147Z,4.77
2019-02-14T09:19:48.411Z,6.33
2019-02-14T09:22:18.943Z,5.73
2019-02-14T09:24:49.771Z,6.10
2019-02-14T09:27:20.550Z,7.77
2019-02-14T09:29:51.187Z,6.20
2019-02-14T09:32:25.699Z,5.50
2019-02-14T09:34:56.281Z,6.17
2019-02-14T09:37:27.177Z,5.87
2019-02-14T09:39:57.921Z,7.50
2019-02-14T09:42:29.278Z,6.80
2019-02-14T09:44:59.348Z,7.43
2019-02-14T09:47:29.969Z,7.00
2019-02-14T09:50:00.751Z,6.03
2019-02-14T09:52:31.129Z,6.70
2019-02-14T09:55:02.074Z,6.67
2019-02-14T09:57:32.487Z,5.67
2019-02-14T10:00:03.262Z,5.90
2019-02-14T10:02:33.410Z,6.37
2019-02-14T10:05:03.479Z,5.30
2019-02-14T10:07:34.036Z,5.50
2019-02-14T10:10:04.202Z,6.67
2019-02-14T10:12:34.565Z,6.60
2019-02-14T10:15:05.406Z,7.67
2019-02-14T10:17:35.832Z,6.10
2019-02-14T10:20:07.768Z,5.90
2019-02-14T10:22:37.966Z,7.03
2019-02-14T10:25:08.928Z,5.73
2019-02-14T10:27:39.018Z,6.07
2019-02-14T10:30:13.049Z,5.80
2019-02-14T10:32:44.157Z,5.60
2019-02-14T10:35:15.091Z,6.70
2019-02-14T10:37:45.246Z,6.60
2019-02-14T10:40:15.964Z,5.70
2019-02-14T10:42:46.614Z,6.50
2019-02-14T10:45:17.380Z,8.07
2019-02-14T10:47:47.802Z,5.30
2019-02-14T10:50:18.586Z,6.13
2019-02-14T10:52:49.249Z,7.07
2019-02-14T10:55:19.588Z,6.50
2019-02-14T10:57:50.490Z,6.80
2019-02-14T11:00:21.752Z,7.33
2019-02-14T11:02:52.410Z,5.60
2019-02-14T11:05:23.093Z,6.83
2019-02-14T11:07:53.300Z,6.47
2019-02-14T11:10:23.812Z,6.80
2019-02-14T11:12:55.343Z,6.00
2019-02-14T11:15:25.369Z,5.73
2019-02-14T11:17:55.540Z,7.00
2019-02-14T11:20:25.508Z,6.17
2019-02-14T11:22:55.683Z,6.30
2019-02-14T11:25:29.370Z,6.43
2019-02-14T11:28:00.280Z,5.67
2019-02-14T11:30:30.721Z,6.83
2019-02-14T11:33:01.018Z,6.77
2019-02-14T11:35:31.383Z,7.43
2019-02-14T11:38:01.980Z,6.17
2019-02-14T11:40:33.683Z,7.07
2019-02-14T11:43:04.614Z,7.10
2019-02-14T11:45:34.518Z,7.80
2019-02-14T11:48:05.211Z,7.67
2019-02-14T11:50:36.036Z,6.80
2019-02-14T11:53:14.004Z,7.73
2019-02-14T11:55:38.856Z,6.13
2019-02-14T11:58:09.623Z,6.80
2019-02-14T12:00:39.996Z,6.33
2019-02-14T12:03:09.972Z,5.70
2019-02-14T12:05:39.838Z,7.77
2019-02-14T12:08:10.132Z,6.57
2019-02-14T12:10:40.236Z,6.10
2019-02-14T12:13:10.570Z,8.93
2019-02-14T12:15:41.132Z,7.80
2019-02-14T12:18:11.404Z,7.37
2019-02-14T12:20:42.026Z,7.77
2019-02-14T12:23:12.550Z,7.00
2019-02-14T12:25:42.942Z,6.90
2019-02-14T12:28:13.395Z,7.13
2019-02-14T12:30:43.637Z,6.23
2019-02-14T12:33:14.478Z,6.20
2019-02-14T12:35:45.169Z,7.23
2019-02-14T12:38:16.202Z,7.73
2019-02-14T12:40:47.253Z,7.30
2019-02-14T12:43:18.045Z,7.50
2019-02-14T12:45:48.573Z,6.63
2019-02-14T12:48:18.877Z,7.83
2019-02-14T12:50:49.957Z,6.33
2019-02-14T12:53:20.551Z,5.57
2019-02-14T12:55:51.242Z,7.10
2019-02-14T12:58:22.119Z,6.20
2019-02-14T13:00:52.739Z,7.23
2019-02-14T13:03:23.513Z,6.60
2019-02-14T13:05:54.548Z,5.77
2019-02-14T13:08:25.415Z,6.00
2019-02-14T13:10:56.135Z,6.67
2019-02-14T13:13:27.147Z,5.67
2019-02-14T13:15:57.657Z,5.80
2019-02-14T13:18:28.603Z,5.83
2019-02-14T13:20:59.337Z,6.70
2019-02-14T13:23:29.717Z,5.47
2019-02-14T13:26:00.429Z,5.20
2019-02-14T13:28:30.778Z,5.73
2019-02-14T13:31:01.431Z,5.93
2019-02-14T13:33:31.795Z,5.43
2019-02-14T13:36:02.476Z,5.80
2019-02-14T13:38:33.071Z,6.20
2019-02-14T13:41:03.283Z,5.30
2019-02-14T13:43:33.269Z,5.50
2019-02-14T13:46:03.723Z,4.80
2019-02-14T13:48:34.007Z,6.57
2019-02-14T13:51:04.753Z,4.53
2019-02-14T13:53:35.265Z,6.90
2019-02-14T13:56:05.702Z,5.60
2019-02-14T13:58:36.591Z,6.30
2019-02-14T14:01:07.528Z,5.40
2019-02-14T14:03:37.919Z,4.80
2019-02-14T14:06:08.976Z,6.03
2019-02-14T14:08:39.689Z,4.60
2019-02-14T14:11:10.132Z,5.20
2019-02-14T14:13:40.653Z,5.20
2019-02-14T14:16:11.891Z,5.13
2019-02-14T14:18:42.429Z,5.60
2019-02-14T14:21:12.521Z,5.80
2019-02-14T14:23:42.784Z,6.20
2019-02-14T14:26:12.861Z,5.50
2019-02-14T14:28:43.583Z,4.77
2019-02-14T14:31:14.479Z,4.33
2019-02-14T14:33:45.357Z,5.17
2019-02-14T14:36:15.873Z,5.13
2019-02-14T14:38:46.665Z,5.00
2019-02-14T14:41:17.146Z,5.47
2019-02-14T14:44:03.802Z,5.87
2019-02-14T14:46:42.620Z,4.93
2019-02-14T14:49:13.512Z,5.30
2019-02-14T14:51:44.059Z,9.17
2019-02-14T14:54:14.427Z,6.30
2019-02-14T14:56:44.752Z,5.90
2019-02-14T14:59:15.250Z,7.37
2019-02-14T15:01:46.333Z,6.90
2019-02-14T15:04:16.916Z,6.50
2019-02-14T15:06:47.573Z,6.73
2019-02-14T15:09:17.962Z,5.87
2019-02-14T15:11:48.786Z,6.70
2019-02-14T15:14:19.297Z,6.13
2019-02-14T15:16:49.822Z,7.67
2019-02-14T15:19:20.697Z,7.13
2019-02-14T15:21:51.245Z,6.97
2019-02-14T15:24:21.955Z,6.47
2019-02-14T15:26:52.509Z,6.63
2019-02-14T15:29:23.438Z,7.13
2019-02-14T15:31:54.124Z,8.03
2019-02-14T15:34:24.938Z,5.87
2019-02-14T15:36:55.218Z,5.80
2019-02-14T15:39:26.279Z,7.10
2019-02-14T15:41:56.802Z,5.30
2019-02-14T15:44:28.017Z,6.00
2019-02-14T15:46:58.308Z,4.83
2019-02-14T15:49:28.914Z,5.37
2019-02-14T15:51:59.761Z,7.07
2019-02-14T15:54:31.362Z,6.47
2019-02-14T15:57:02.869Z,7.10
2019-02-14T15:59:32.956Z,7.10
2019-02-14T16:02:06.070Z,8.20
2019-02-14T16:04:36.216Z,7.13
2019-02-14T16:07:06.755Z,6.30
2019-02-14T16:09:38.861Z,5.47
2019-02-14T16:12:10.514Z,5.37
2019-02-14T16:14:42.764Z,5.37
2019-02-14T16:17:13.779Z,3.93
2019-02-14T16:19:44.696Z,5.77
2019-02-14T16:22:15.830Z,6.03
2019-02-14T16:24:47.194Z,5.80
2019-02-14T16:27:17.818Z,6.23
2019-02-14T16:29:49.264Z,6.17
2019-02-14T16:32:21.281Z,5.37
2019-02-14T16:34:51.850Z,5.97
2019-02-14T16:37:22.393Z,5.30
2019-02-14T16:39:54.263Z,8.60
2019-02-14T16:42:24.342Z,6.30
2019-02-14T16:44:54.865Z,4.97
2019-02-14T16:47:25.747Z,5.67
2019-02-14T16:49:56.247Z,5.47
2019-02-14T16:52:27.216Z,6.13
2019-02-14T16:54:58.019Z,6.13
2019-02-14T16:57:28.553Z,7.30
2019-02-14T16:59:58.991Z,5.20
2019-02-14T17:02:29.815Z,7.07
2019-02-14T17:05:00.377Z,5.40
2019-02-14T17:07:30.809Z,6.30
2019-02-14T17:10:01.162Z,6.07
2019-02-14T17:12:31.174Z,5.10
2019-02-14T17:15:01.512Z,4.83
2019-02-14T17:17:33.239Z,5.67
2019-02-14T17:20:04.399Z,5.67
2019-02-14T17:22:34.627Z,5.60
2019-02-14T17:25:04.559Z,6.13
2019-02-14T17:27:35.119Z,4.83
2019-02-14T17:30:05.423Z,4.67
2019-02-14T17:32:35.969Z,5.20
2019-02-14T17:35:06.531Z,6.17
2019-02-14T17:37:37.307Z,5.33
2019-02-14T17:40:08.415Z,6.75
2019-02-14T17:42:38.561Z,8.50
2019-02-14T17:45:09.111Z,4.60
2019-02-14T17:47:39.897Z,6.23
2019-02-14T17:50:10.937Z,5.40
2019-02-14T17:52:41.910Z,5.73
2019-02-14T17:55:12.316Z,4.60
2019-02-14T17:57:42.407Z,5.30
2019-02-14T18:00:13.147Z,4.83
2019-02-14T18:02:43.458Z,4.40
2019-02-14T18:05:13.893Z,4.93
2019-02-14T18:07:44.232Z,5.67
2019-02-14T18:10:14.725Z,4.70
2019-02-14T18:12:45.087Z,4.80
2019-02-14T18:15:15.207Z,4.77
2019-02-14T18:17:45.960Z,3.70
2019-02-14T18:20:16.929Z,5.70
2019-02-14T18:22:47.784Z,5.67
2019-02-14T18:25:18.502Z,4.00
2019-02-14T18:27:49.465Z,4.27
2019-02-14T18:30:19.682Z,3.50
2019-02-14T18:32:50.585Z,5.10
2019-02-14T18:35:21.310Z,3.07
2019-02-14T18:37:51.911Z,2.63
2019-02-14T18:40:22.571Z,2.40
2019-02-14T18:42:53.718Z,3.57
2019-02-14T18:45:25.346Z,4.27
2019-02-14T18:47:57.403Z,3.80
2019-02-14T18:50:28.008Z,4.70
2019-02-14T18:52:58.695Z,5.70
2019-02-14T18:55:29.383Z,5.80
2019-02-14T18:57:59.588Z,5.37
2019-02-14T19:00:30.300Z,4.70
2019-02-14T19:03:01.020Z,6.33
2019-02-14T19:05:32.368Z,5.70
2019-02-14T19:08:02.719Z,5.83
2019-02-14T19:10:33.325Z,7.57
2019-02-14T19:13:04.374Z,7.87
2019-02-14T19:15:35.395Z,4.93
2019-02-14T19:18:06.476Z,6.17
2019-02-14T19:20:36.879Z,4.50
2019-02-14T19:23:07.789Z,4.37
2019-02-14T19:25:38.157Z,5.50
2019-02-14T19:28:08.222Z,5.27
2019-02-14T19:30:39.022Z,4.50
2019-02-14T19:33:09.487Z,5.97
2019-02-14T19:35:40.041Z,6.00
2019-02-14T19:38:10.834Z,5.50
2019-02-14T19:40:41.610Z,5.73
2019-02-14T19:43:12.295Z,6.90
2019-02-14T19:45:43.287Z,6.33
2019-02-14T19:48:14.117Z,5.33
2019-02-14T19:50:45.174Z,8.13
2019-02-14T19:53:15.816Z,8.80
2019-02-14T19:55:46.435Z,5.87
2019-02-14T19:58:17.219Z,7.83
2019-02-14T20:00:47.843Z,6.57
2019-02-14T20:03:18.449Z,6.33
2019-02-14T20:05:49.409Z,7.57
2019-02-14T20:08:20.287Z,5.27
2019-02-14T20:10:50.634Z,9.20
2019-02-14T20:13:21.364Z,7.33
2019-02-14T20:15:52.345Z,8.20
2019-02-14T20:18:22.409Z,6.27
2019-02-14T20:20:52.884Z,8.13
2019-02-14T20:23:23.181Z,7.40
2019-02-14T20:25:53.176Z,7.97
2019-02-14T20:28:23.899Z,6.83
2019-02-14T20:30:54.306Z,6.07
2019-02-14T20:33:25.726Z,5.87
2019-02-14T20:35:56.418Z,5.87
2019-02-14T20:38:27.468Z,4.67
2019-02-14T20:40:58.558Z,4.97
2019-02-14T20:43:28.540Z,5.03
2019-02-14T20:45:58.966Z,4.60
2019-02-14T20:48:29.656Z,4.23
2019-02-14T20:51:00.135Z,4.90
2019-02-14T20:53:30.458Z,5.00
2019-02-14T20:56:01.158Z,5.63
2019-02-14T20:58:31.998Z,4.70
2019-02-14T21:01:04.066Z,7.90
2019-02-14T21:03:34.820Z,12.05
2019-02-14T21:06:05.617Z,7.10
2019-02-14T21:08:36.204Z,5.90
2019-02-14T21:11:06.719Z,5.67
2019-02-14T21:13:37.180Z,3.80
2019-02-14T21:16:07.583Z,8.07
2019-02-14T21:18:38.113Z,4.73
2019-02-14T21:21:09.163Z,5.37
2019-02-14T21:23:39.885Z,4.00
2019-02-14T21:26:11.667Z,5.33
2019-02-14T21:28:42.561Z,7.53
2019-02-14T21:31:12.842Z,7.60
2019-02-14T21:33:43.225Z,7.70
2019-02-14T21:36:13.653Z,4.87
2019-02-14T21:38:44.253Z,4.97
2019-02-14T21:41:15.474Z,5.73
2019-02-14T21:43:46.897Z,6.70
2019-02-14T21:46:17.744Z,7.00
2019-02-14T21:48:48.727Z,3.90
2019-02-14T21:51:19.421Z,7.67
2019-02-14T21:53:50.010Z,8.63
2019-02-14T21:56:21.228Z,5.20
2019-02-14T21:58:51.513Z,5.03
2019-02-14T22:01:25.276Z,5.30
2019-02-14T22:03:56.612Z,4.70
2019-02-14T22:06:28.551Z,6.03
2019-02-14T22:08:59.112Z,7.03
2019-02-14T22:11:33.968Z,4.03
2019-02-14T22:14:02.306Z,4.27
2019-02-14T22:16:33.234Z,5.10
2019-02-14T22:19:04.127Z,6.83
2019-02-14T22:21:34.517Z,5.63
2019-02-14T22:24:05.043Z,5.23
2019-02-14T22:26:35.534Z,3.50
2019-02-14T22:29:06.081Z,3.60
2019-02-14T22:31:36.844Z,5.87
2019-02-14T22:34:07.945Z,2.70
2019-02-14T22:36:38.687Z,6.80
2019-02-14T22:39:09.703Z,3.53
2019-02-14T22:41:43.207Z,4.30
2019-02-14T22:44:13.764Z,5.63
2019-02-14T22:46:44.083Z,4.93
2019-02-14T22:49:14.972Z,5.10
2019-02-14T22:51:45.105Z,5.83
2019-02-14T22:54:16.171Z,6.63
2019-02-14T22:56:47.201Z,3.40
2019-02-14T22:59:17.773Z,4.70
2019-02-14T23:01:48.834Z,5.43
2019-02-14T23:04:19.498Z,3.90
2019-02-14T23:06:50.059Z,2.73
2019-02-14T23:09:20.143Z,5.30
2019-02-14T23:11:51.211Z,5.67
2019-02-14T23:14:22.156Z,7.23
2019-02-14T23:16:52.783Z,3.33
2019-02-14T23:19:23.546Z,3.80
2019-02-14T23:21:54.285Z,4.93
2019-02-14T23:24:24.828Z,4.13
2019-02-14T23:26:55.286Z,4.20
2019-02-14T23:29:26.279Z,4.60
2019-02-14T23:31:56.940Z,2.67
2019-02-14T23:34:27.182Z,5.00
2019-02-14T23:36:59.311Z,3.63
2019-02-14T23:39:30.074Z,5.23
2019-02-14T23:42:00.545Z,5.73
2019-02-14T23:44:30.900Z,4.63
2019-02-14T23:47:01.419Z,4.43
2019-02-14T23:49:32.332Z,2.90
2019-02-14T23:52:03.092Z,4.70
2019-02-14T23:54:34.070Z,4.17
2019-02-14T23:57:04.394Z,4.97
2019-02-14T23:59:34.903Z,4.10
